sensor_id;sensor_type;location;lat;lon;timestamp;temperature;humidity
23885;DHT22;12123;53.088;7.392;2022-08-19T00:01:26;23.00;99.90
23885;DHT22;12123;53.088;7.392;2022-08-19T00:03:57;23.00;99.90
23885;DHT22;12123;53.088;7.392;2022-08-19T00:06:26;22.90;99.90
23885;DHT22;12123;53.088;7.392;2022-08-19T00:08:54;23.00;99.90
23885;DHT22;12123;53.088;7.392;2022-08-19T00:11:22;23.00;99.90
23885;DHT22;12123;53.088;7.392;2022-08-19T00:13:52;23.00;99.90
23885;DHT22;12123;53.088;7.392;2022-08-19T00:16:19;23.00;99.90
23885;DHT22;12123;53.088;7.392;2022-08-19T00:18:55;23.00;99.90
23885;DHT22;12123;53.088;7.392;2022-08-19T00:21:24;23.00;99.90
23885;DHT22;12123;53.088;7.392;2022-08-19T00:23:54;23.10;99.90
23885;DHT22;12123;53.088;7.392;2022-08-19T00:26:26;23.10;99.90
23885;DHT22;12123;53.088;7.392;2022-08-19T00:28:54;23.00;99.90
23885;DHT22;12123;53.088;7.392;2022-08-19T00:31:21;23.10;99.90
23885;DHT22;12123;53.088;7.392;2022-08-19T00:33:48;23.20;99.90
23885;DHT22;12123;53.088;7.392;2022-08-19T00:36:17;23.20;99.90
23885;DHT22;12123;53.088;7.392;2022-08-19T00:38:44;23.20;99.90
23885;DHT22;12123;53.088;7.392;2022-08-19T00:41:15;23.10;99.90
23885;DHT22;12123;53.088;7.392;2022-08-19T00:44:16;23.20;99.90
23885;DHT22;12123;53.088;7.392;2022-08-19T00:46:45;23.30;99.90
23885;DHT22;12123;53.088;7.392;2022-08-19T00:49:33;23.40;99.90
23885;DHT22;12123;53.088;7.392;2022-08-19T00:52:16;23.30;99.90
23885;DHT22;12123;53.088;7.392;2022-08-19T00:54:46;23.30;99.90
23885;DHT22;12123;53.088;7.392;2022-08-19T00:57:20;23.30;99.90
23885;DHT22;12123;53.088;7.392;2022-08-19T00:59:52;23.30;99.90
23885;DHT22;12123;53.088;7.392;2022-08-19T01:02:29;23.30;99.90
23885;DHT22;12123;53.088;7.392;2022-08-19T01:04:56;23.40;99.90
23885;DHT22;12123;53.088;7.392;2022-08-19T01:07:23;23.30;99.90
23885;DHT22;12123;53.088;7.392;2022-08-19T01:09:51;23.30;99.90
23885;DHT22;12123;53.088;7.392;2022-08-19T01:12:18;23.30;99.90
23885;DHT22;12123;53.088;7.392;2022-08-19T01:14:46;23.40;99.90
23885;DHT22;12123;53.088;7.392;2022-08-19T01:17:15;23.40;99.90
23885;DHT22;12123;53.088;7.392;2022-08-19T01:19:43;23.40;99.90
23885;DHT22;12123;53.088;7.392;2022-08-19T01:24:56;23.40;99.90
23885;DHT22;12123;53.088;7.392;2022-08-19T01:27:24;23.40;99.90
23885;DHT22;12123;53.088;7.392;2022-08-19T01:29:51;23.50;99.90
23885;DHT22;12123;53.088;7.392;2022-08-19T01:32:18;23.50;99.90
23885;DHT22;12123;53.088;7.392;2022-08-19T01:35:00;23.60;99.90
23885;DHT22;12123;53.088;7.392;2022-08-19T01:37:29;23.60;99.90
23885;DHT22;12123;53.088;7.392;2022-08-19T01:39:57;23.60;99.90
23885;DHT22;12123;53.088;7.392;2022-08-19T01:42:24;23.60;99.90
23885;DHT22;12123;53.088;7.392;2022-08-19T01:44:56;23.60;99.90
23885;DHT22;12123;53.088;7.392;2022-08-19T01:47:23;23.60;99.90
23885;DHT22;12123;53.088;7.392;2022-08-19T01:49:50;23.60;99.90
23885;DHT22;12123;53.088;7.392;2022-08-19T01:52:17;23.60;99.90
23885;DHT22;12123;53.088;7.392;2022-08-19T01:54:44;23.60;99.90
23885;DHT22;12123;53.088;7.392;2022-08-19T01:57:12;23.60;99.90
23885;DHT22;12123;53.088;7.392;2022-08-19T01:59:41;23.70;99.90
23885;DHT22;12123;53.088;7.392;2022-08-19T02:02:09;23.70;99.90
23885;DHT22;12123;53.088;7.392;2022-08-19T02:04:37;23.70;99.90
23885;DHT22;12123;53.088;7.392;2022-08-19T02:07:07;23.70;99.90
23885;DHT22;12123;53.088;7.392;2022-08-19T02:09:35;23.70;99.90
23885;DHT22;12123;53.088;7.392;2022-08-19T02:12:02;23.70;99.90
23885;DHT22;12123;53.088;7.392;2022-08-19T02:14:29;23.70;99.90
23885;DHT22;12123;53.088;7.392;2022-08-19T02:16:56;23.70;99.90
23885;DHT22;12123;53.088;7.392;2022-08-19T02:19:23;23.70;99.90
23885;DHT22;12123;53.088;7.392;2022-08-19T02:21:50;23.60;99.90
23885;DHT22;12123;53.088;7.392;2022-08-19T02:24:17;23.70;99.90
23885;DHT22;12123;53.088;7.392;2022-08-19T02:26:44;23.70;99.90
23885;DHT22;12123;53.088;7.392;2022-08-19T02:29:11;24.00;99.90
23885;DHT22;12123;53.088;7.392;2022-08-19T02:31:37;24.20;99.90
23885;DHT22;12123;53.088;7.392;2022-08-19T02:34:04;24.20;99.90
23885;DHT22;12123;53.088;7.392;2022-08-19T02:36:31;24.30;99.90
23885;DHT22;12123;53.088;7.392;2022-08-19T02:38:58;24.30;99.90
23885;DHT22;12123;53.088;7.392;2022-08-19T02:41:28;24.30;99.90
23885;DHT22;12123;53.088;7.392;2022-08-19T02:43:56;24.40;99.90
23885;DHT22;12123;53.088;7.392;2022-08-19T02:46:48;24.50;99.90
23885;DHT22;12123;53.088;7.392;2022-08-19T02:49:17;24.70;99.90
23885;DHT22;12123;53.088;7.392;2022-08-19T02:51:45;24.70;99.90
23885;DHT22;12123;53.088;7.392;2022-08-19T02:54:13;24.80;99.90
23885;DHT22;12123;53.088;7.392;2022-08-19T02:56:41;24.80;99.90
23885;DHT22;12123;53.088;7.392;2022-08-19T02:59:09;24.90;99.90
23885;DHT22;12123;53.088;7.392;2022-08-19T03:01:40;25.00;99.90
23885;DHT22;12123;53.088;7.392;2022-08-19T03:04:10;25.00;99.90
23885;DHT22;12123;53.088;7.392;2022-08-19T03:06:39;25.00;99.90
23885;DHT22;12123;53.088;7.392;2022-08-19T03:09:06;25.00;99.90
23885;DHT22;12123;53.088;7.392;2022-08-19T03:11:33;25.00;99.90
23885;DHT22;12123;53.088;7.392;2022-08-19T03:14:02;25.10;99.90
23885;DHT22;12123;53.088;7.392;2022-08-19T03:16:32;25.10;99.90
23885;DHT22;12123;53.088;7.392;2022-08-19T03:19:00;25.20;99.90
23885;DHT22;12123;53.088;7.392;2022-08-19T03:21:31;25.30;99.90
23885;DHT22;12123;53.088;7.392;2022-08-19T03:24:04;25.40;99.90
23885;DHT22;12123;53.088;7.392;2022-08-19T03:26:32;25.40;99.90
23885;DHT22;12123;53.088;7.392;2022-08-19T03:29:02;25.50;99.90
23885;DHT22;12123;53.088;7.392;2022-08-19T03:31:31;25.70;99.90
23885;DHT22;12123;53.088;7.392;2022-08-19T03:34:24;25.80;99.90
23885;DHT22;12123;53.088;7.392;2022-08-19T03:36:54;25.90;99.90
23885;DHT22;12123;53.088;7.392;2022-08-19T03:39:22;25.90;99.90
23885;DHT22;12123;53.088;7.392;2022-08-19T03:41:50;26.00;99.90
23885;DHT22;12123;53.088;7.392;2022-08-19T03:44:37;26.00;99.90
23885;DHT22;12123;53.088;7.392;2022-08-19T03:47:04;26.10;99.90
23885;DHT22;12123;53.088;7.392;2022-08-19T03:49:32;26.10;99.90
23885;DHT22;12123;53.088;7.392;2022-08-19T03:52:00;26.10;99.90
23885;DHT22;12123;53.088;7.392;2022-08-19T03:54:27;26.20;99.90
23885;DHT22;12123;53.088;7.392;2022-08-19T03:56:55;26.30;99.90
23885;DHT22;12123;53.088;7.392;2022-08-19T03:59:27;26.30;99.90
23885;DHT22;12123;53.088;7.392;2022-08-19T04:01:56;26.40;99.90
23885;DHT22;12123;53.088;7.392;2022-08-19T04:04:24;26.40;99.90
23885;DHT22;12123;53.088;7.392;2022-08-19T04:06:55;26.50;99.90
23885;DHT22;12123;53.088;7.392;2022-08-19T04:09:22;26.50;99.90
23885;DHT22;12123;53.088;7.392;2022-08-19T04:11:51;26.50;99.90
23885;DHT22;12123;53.088;7.392;2022-08-19T04:14:23;26.50;99.90
23885;DHT22;12123;53.088;7.392;2022-08-19T04:16:51;26.60;99.90
23885;DHT22;12123;53.088;7.392;2022-08-19T04:19:19;26.70;99.90
23885;DHT22;12123;53.088;7.392;2022-08-19T04:21:49;26.70;99.90
23885;DHT22;12123;53.088;7.392;2022-08-19T04:24:16;26.60;99.90
23885;DHT22;12123;53.088;7.392;2022-08-19T04:26:44;26.80;99.90
23885;DHT22;12123;53.088;7.392;2022-08-19T04:29:14;26.80;99.90
23885;DHT22;12123;53.088;7.392;2022-08-19T04:31:43;26.80;99.90
23885;DHT22;12123;53.088;7.392;2022-08-19T04:34:13;26.90;99.90
23885;DHT22;12123;53.088;7.392;2022-08-19T04:36:41;26.90;99.90
23885;DHT22;12123;53.088;7.392;2022-08-19T04:39:12;26.80;99.90
23885;DHT22;12123;53.088;7.392;2022-08-19T04:41:39;26.80;99.90
23885;DHT22;12123;53.088;7.392;2022-08-19T04:44:25;26.90;99.90
23885;DHT22;12123;53.088;7.392;2022-08-19T04:46:52;27.10;99.90
23885;DHT22;12123;53.088;7.392;2022-08-19T04:49:21;27.10;99.90
23885;DHT22;12123;53.088;7.392;2022-08-19T04:51:52;27.10;99.90
23885;DHT22;12123;53.088;7.392;2022-08-19T04:54:23;27.20;99.90
23885;DHT22;12123;53.088;7.392;2022-08-19T04:57:08;27.30;99.90
23885;DHT22;12123;53.088;7.392;2022-08-19T04:59:38;27.30;99.90
23885;DHT22;12123;53.088;7.392;2022-08-19T05:02:07;27.30;99.90
23885;DHT22;12123;53.088;7.392;2022-08-19T05:04:34;27.50;99.90
23885;DHT22;12123;53.088;7.392;2022-08-19T05:07:05;27.50;99.90
23885;DHT22;12123;53.088;7.392;2022-08-19T05:09:32;27.40;99.90
23885;DHT22;12123;53.088;7.392;2022-08-19T05:12:18;27.40;99.90
23885;DHT22;12123;53.088;7.392;2022-08-19T05:14:45;27.40;99.90
23885;DHT22;12123;53.088;7.392;2022-08-19T05:17:14;27.50;99.90
23885;DHT22;12123;53.088;7.392;2022-08-19T05:20:02;27.50;99.90
23885;DHT22;12123;53.088;7.392;2022-08-19T05:22:48;27.50;99.90
23885;DHT22;12123;53.088;7.392;2022-08-19T05:25:20;27.70;99.90
23885;DHT22;12123;53.088;7.392;2022-08-19T05:27:48;27.70;99.90
23885;DHT22;12123;53.088;7.392;2022-08-19T05:30:16;27.50;99.90
23885;DHT22;12123;53.088;7.392;2022-08-19T05:32:43;27.70;99.90
23885;DHT22;12123;53.088;7.392;2022-08-19T05:35:10;27.50;99.90
23885;DHT22;12123;53.088;7.392;2022-08-19T05:37:38;27.90;99.90
23885;DHT22;12123;53.088;7.392;2022-08-19T05:40:08;27.90;99.90
23885;DHT22;12123;53.088;7.392;2022-08-19T05:42:36;27.80;99.90
23885;DHT22;12123;53.088;7.392;2022-08-19T05:45:03;27.90;99.90
23885;DHT22;12123;53.088;7.392;2022-08-19T05:47:31;28.00;99.90
23885;DHT22;12123;53.088;7.392;2022-08-19T05:49:59;27.90;99.90
23885;DHT22;12123;53.088;7.392;2022-08-19T05:52:27;28.10;99.90
23885;DHT22;12123;53.088;7.392;2022-08-19T05:54:56;28.10;99.90
23885;DHT22;12123;53.088;7.392;2022-08-19T05:57:23;28.10;99.90
23885;DHT22;12123;53.088;7.392;2022-08-19T05:59:50;28.00;99.90
23885;DHT22;12123;53.088;7.392;2022-08-19T06:02:25;28.20;99.90
23885;DHT22;12123;53.088;7.392;2022-08-19T06:04:53;28.30;99.90
23885;DHT22;12123;53.088;7.392;2022-08-19T06:07:19;28.50;99.90
23885;DHT22;12123;53.088;7.392;2022-08-19T06:09:46;28.60;99.90
23885;DHT22;12123;53.088;7.392;2022-08-19T06:12:29;29.10;99.90
23885;DHT22;12123;53.088;7.392;2022-08-19T06:14:59;29.10;99.90
23885;DHT22;12123;53.088;7.392;2022-08-19T06:17:28;29.10;99.90
23885;DHT22;12123;53.088;7.392;2022-08-19T06:19:57;29.50;99.90
23885;DHT22;12123;53.088;7.392;2022-08-19T06:22:25;29.30;99.90
23885;DHT22;12123;53.088;7.392;2022-08-19T06:24:53;28.90;99.90
23885;DHT22;12123;53.088;7.392;2022-08-19T06:27:21;29.00;99.90
23885;DHT22;12123;53.088;7.392;2022-08-19T06:29:48;29.20;99.90
23885;DHT22;12123;53.088;7.392;2022-08-19T06:32:16;29.00;99.90
23885;DHT22;12123;53.088;7.392;2022-08-19T06:34:44;28.70;99.90
23885;DHT22;12123;53.088;7.392;2022-08-19T06:37:11;28.80;99.90
23885;DHT22;12123;53.088;7.392;2022-08-19T06:39:40;28.70;99.90
23885;DHT22;12123;53.088;7.392;2022-08-19T06:42:08;28.20;99.90
23885;DHT22;12123;53.088;7.392;2022-08-19T06:44:40;27.80;99.90
23885;DHT22;12123;53.088;7.392;2022-08-19T06:47:12;26.70;99.90
23885;DHT22;12123;53.088;7.392;2022-08-19T06:49:41;26.60;99.90
23885;DHT22;12123;53.088;7.392;2022-08-19T06:52:08;26.60;99.90
23885;DHT22;12123;53.088;7.392;2022-08-19T06:54:40;26.00;99.90
23885;DHT22;12123;53.088;7.392;2022-08-19T06:57:22;25.50;99.90
23885;DHT22;12123;53.088;7.392;2022-08-19T06:59:49;25.20;99.90
23885;DHT22;12123;53.088;7.392;2022-08-19T07:02:16;24.80;99.90
23885;DHT22;12123;53.088;7.392;2022-08-19T07:04:44;25.00;99.90
23885;DHT22;12123;53.088;7.392;2022-08-19T07:07:13;24.80;99.90
23885;DHT22;12123;53.088;7.392;2022-08-19T07:09:47;24.60;99.90
23885;DHT22;12123;53.088;7.392;2022-08-19T07:12:24;24.20;99.90
23885;DHT22;12123;53.088;7.392;2022-08-19T07:14:52;23.70;99.90
23885;DHT22;12123;53.088;7.392;2022-08-19T07:17:20;23.30;99.90
23885;DHT22;12123;53.088;7.392;2022-08-19T07:19:47;22.90;99.90
23885;DHT22;12123;53.088;7.392;2022-08-19T07:22:14;22.40;99.90
23885;DHT22;12123;53.088;7.392;2022-08-19T07:24:43;22.90;99.90
23885;DHT22;12123;53.088;7.392;2022-08-19T07:27:17;23.10;99.90
23885;DHT22;12123;53.088;7.392;2022-08-19T07:29:52;23.30;99.90
23885;DHT22;12123;53.088;7.392;2022-08-19T07:32:23;23.40;99.90
23885;DHT22;12123;53.088;7.392;2022-08-19T07:34:51;22.60;99.90
23885;DHT22;12123;53.088;7.392;2022-08-19T07:37:19;22.30;99.90
23885;DHT22;12123;53.088;7.392;2022-08-19T07:39:45;22.50;99.90
23885;DHT22;12123;53.088;7.392;2022-08-19T07:42:12;22.80;99.90
23885;DHT22;12123;53.088;7.392;2022-08-19T07:44:40;23.00;99.90
23885;DHT22;12123;53.088;7.392;2022-08-19T07:47:07;23.10;99.90
23885;DHT22;12123;53.088;7.392;2022-08-19T07:49:54;22.90;99.90
23885;DHT22;12123;53.088;7.392;2022-08-19T07:52:21;22.50;99.90
23885;DHT22;12123;53.088;7.392;2022-08-19T07:54:48;22.70;99.90
23885;DHT22;12123;53.088;7.392;2022-08-19T07:57:16;22.70;99.90
23885;DHT22;12123;53.088;7.392;2022-08-19T07:59:43;22.90;99.90
23885;DHT22;12123;53.088;7.392;2022-08-19T08:02:10;22.60;99.90
23885;DHT22;12123;53.088;7.392;2022-08-19T08:04:37;23.10;99.90
23885;DHT22;12123;53.088;7.392;2022-08-19T08:07:22;22.60;99.90
23885;DHT22;12123;53.088;7.392;2022-08-19T08:10:12;22.60;99.90
23885;DHT22;12123;53.088;7.392;2022-08-19T08:12:47;23.00;99.90
23885;DHT22;12123;53.088;7.392;2022-08-19T08:15:34;23.70;99.90
23885;DHT22;12123;53.088;7.392;2022-08-19T08:18:07;23.20;99.90
23885;DHT22;12123;53.088;7.392;2022-08-19T08:20:34;22.90;99.90
23885;DHT22;12123;53.088;7.392;2022-08-19T08:23:02;23.50;99.90
23885;DHT22;12123;53.088;7.392;2022-08-19T08:25:47;24.00;99.90
23885;DHT22;12123;53.088;7.392;2022-08-19T08:28:16;23.60;99.90
23885;DHT22;12123;53.088;7.392;2022-08-19T08:30:44;23.50;99.90
23885;DHT22;12123;53.088;7.392;2022-08-19T08:33:13;24.10;99.90
23885;DHT22;12123;53.088;7.392;2022-08-19T08:35:41;24.60;99.90
23885;DHT22;12123;53.088;7.392;2022-08-19T08:38:08;24.50;99.90
23885;DHT22;12123;53.088;7.392;2022-08-19T08:49:01;24.20;99.90
23885;DHT22;12123;53.088;7.392;2022-08-19T08:51:37;23.40;99.90
23885;DHT22;12123;53.088;7.392;2022-08-19T08:54:12;24.00;99.90
23885;DHT22;12123;53.088;7.392;2022-08-19T08:56:41;25.60;99.90
23885;DHT22;12123;53.088;7.392;2022-08-19T08:59:24;25.60;99.90
23885;DHT22;12123;53.088;7.392;2022-08-19T09:01:53;25.60;99.90
23885;DHT22;12123;53.088;7.392;2022-08-19T09:04:20;24.30;99.90
23885;DHT22;12123;53.088;7.392;2022-08-19T09:06:59;25.70;99.90
23885;DHT22;12123;53.088;7.392;2022-08-19T09:09:51;27.10;99.90
23885;DHT22;12123;53.088;7.392;2022-08-19T09:12:26;27.60;99.90
23885;DHT22;12123;53.088;7.392;2022-08-19T09:15:01;27.20;99.90
23885;DHT22;12123;53.088;7.392;2022-08-19T09:17:30;26.80;99.90
23885;DHT22;12123;53.088;7.392;2022-08-19T09:20:02;26.70;99.90
23885;DHT22;12123;53.088;7.392;2022-08-19T09:22:39;27.20;1.00
23885;DHT22;12123;53.088;7.392;2022-08-19T09:25:09;25.80;7.00
23885;DHT22;12123;53.088;7.392;2022-08-19T09:27:38;25.70;99.90
23885;DHT22;12123;53.088;7.392;2022-08-19T09:30:28;25.70;99.90
23885;DHT22;12123;53.088;7.392;2022-08-19T09:32:57;24.10;99.90
23885;DHT22;12123;53.088;7.392;2022-08-19T09:35:25;24.60;99.90
23885;DHT22;12123;53.088;7.392;2022-08-19T09:37:55;26.20;8.20
23885;DHT22;12123;53.088;7.392;2022-08-19T09:40:26;27.50;99.90
23885;DHT22;12123;53.088;7.392;2022-08-19T09:42:57;28.30;99.90
23885;DHT22;12123;53.088;7.392;2022-08-19T09:45:35;26.50;99.90
23885;DHT22;12123;53.088;7.392;2022-08-19T09:48:02;26.10;99.90
23885;DHT22;12123;53.088;7.392;2022-08-19T09:50:29;26.00;99.90
23885;DHT22;12123;53.088;7.392;2022-08-19T09:53:00;25.90;99.90
23885;DHT22;12123;53.088;7.392;2022-08-19T09:55:27;27.30;99.90
23885;DHT22;12123;53.088;7.392;2022-08-19T09:57:59;28.30;1.00
23885;DHT22;12123;53.088;7.392;2022-08-19T10:00:26;28.30;99.90
23885;DHT22;12123;53.088;7.392;2022-08-19T10:02:53;26.20;99.90
23885;DHT22;12123;53.088;7.392;2022-08-19T10:05:20;26.80;99.90
23885;DHT22;12123;53.088;7.392;2022-08-19T10:08:16;26.10;99.90
23885;DHT22;12123;53.088;7.392;2022-08-19T10:10:44;27.00;99.90
23885;DHT22;12123;53.088;7.392;2022-08-19T10:13:15;27.90;99.90
23885;DHT22;12123;53.088;7.392;2022-08-19T10:15:43;29.20;99.90
23885;DHT22;12123;53.088;7.392;2022-08-19T10:18:13;27.90;99.90
23885;DHT22;12123;53.088;7.392;2022-08-19T10:20:40;28.50;99.90
23885;DHT22;12123;53.088;7.392;2022-08-19T10:23:09;28.40;99.90
23885;DHT22;12123;53.088;7.392;2022-08-19T10:25:36;28.50;79.70
23885;DHT22;12123;53.088;7.392;2022-08-19T10:28:04;27.60;38.30
23885;DHT22;12123;53.088;7.392;2022-08-19T10:30:36;29.10;56.00
23885;DHT22;12123;53.088;7.392;2022-08-19T10:33:05;28.50;16.00
23885;DHT22;12123;53.088;7.392;2022-08-19T10:35:37;28.50;22.60
23885;DHT22;12123;53.088;7.392;2022-08-19T10:38:08;28.90;4.60
23885;DHT22;12123;53.088;7.392;2022-08-19T10:40:35;29.00;1.00
23885;DHT22;12123;53.088;7.392;2022-08-19T10:43:03;28.10;1.00
23885;DHT22;12123;53.088;7.392;2022-08-19T10:45:29;29.20;5.50
23885;DHT22;12123;53.088;7.392;2022-08-19T10:47:56;30.70;1.00
23885;DHT22;12123;53.088;7.392;2022-08-19T10:50:24;30.60;1.00
23885;DHT22;12123;53.088;7.392;2022-08-19T10:53:09;28.60;1.00
23885;DHT22;12123;53.088;7.392;2022-08-19T10:55:37;30.20;1.00
23885;DHT22;12123;53.088;7.392;2022-08-19T10:58:22;31.00;1.00
23885;DHT22;12123;53.088;7.392;2022-08-19T11:00:53;32.40;1.00
23885;DHT22;12123;53.088;7.392;2022-08-19T11:03:21;33.00;99.90
23885;DHT22;12123;53.088;7.392;2022-08-19T11:06:00;29.50;99.90
23885;DHT22;12123;53.088;7.392;2022-08-19T11:08:27;28.10;1.00
23885;DHT22;12123;53.088;7.392;2022-08-19T11:10:55;29.60;1.00
23885;DHT22;12123;53.088;7.392;2022-08-19T11:13:24;30.20;99.90
23885;DHT22;12123;53.088;7.392;2022-08-19T11:16:04;30.20;99.90
23885;DHT22;12123;53.088;7.392;2022-08-19T11:18:51;28.50;99.90
23885;DHT22;12123;53.088;7.392;2022-08-19T11:21:21;29.10;99.90
23885;DHT22;12123;53.088;7.392;2022-08-19T11:23:50;30.60;99.90
23885;DHT22;12123;53.088;7.392;2022-08-19T11:26:18;30.70;99.90
23885;DHT22;12123;53.088;7.392;2022-08-19T11:28:46;29.50;99.90
23885;DHT22;12123;53.088;7.392;2022-08-19T11:31:19;30.80;99.90
23885;DHT22;12123;53.088;7.392;2022-08-19T11:33:46;30.10;99.90
23885;DHT22;12123;53.088;7.392;2022-08-19T11:36:14;30.70;99.90
23885;DHT22;12123;53.088;7.392;2022-08-19T11:38:41;30.40;99.90
23885;DHT22;12123;53.088;7.392;2022-08-19T11:41:08;29.30;99.90
23885;DHT22;12123;53.088;7.392;2022-08-19T11:43:36;28.60;99.90
23885;DHT22;12123;53.088;7.392;2022-08-19T11:46:05;31.30;99.90
23885;DHT22;12123;53.088;7.392;2022-08-19T11:48:34;30.10;99.90
23885;DHT22;12123;53.088;7.392;2022-08-19T11:51:08;31.50;99.90
23885;DHT22;12123;53.088;7.392;2022-08-19T11:53:36;29.30;99.90
23885;DHT22;12123;53.088;7.392;2022-08-19T11:56:04;28.80;99.90
23885;DHT22;12123;53.088;7.392;2022-08-19T11:58:32;27.00;99.90
23885;DHT22;12123;53.088;7.392;2022-08-19T12:01:00;26.70;1.00
23885;DHT22;12123;53.088;7.392;2022-08-19T12:03:28;27.50;1.00
23885;DHT22;12123;53.088;7.392;2022-08-19T12:05:56;28.40;1.00
23885;DHT22;12123;53.088;7.392;2022-08-19T12:08:23;28.90;99.90
23885;DHT22;12123;53.088;7.392;2022-08-19T12:10:50;27.40;99.90
23885;DHT22;12123;53.088;7.392;2022-08-19T12:13:17;26.90;1.00
23885;DHT22;12123;53.088;7.392;2022-08-19T12:15:46;26.90;1.00
23885;DHT22;12123;53.088;7.392;2022-08-19T12:18:14;29.20;99.90
23885;DHT22;12123;53.088;7.392;2022-08-19T12:20:42;28.50;99.90
23885;DHT22;12123;53.088;7.392;2022-08-19T12:23:10;28.80;99.90
23885;DHT22;12123;53.088;7.392;2022-08-19T12:25:43;28.60;99.90
23885;DHT22;12123;53.088;7.392;2022-08-19T12:28:15;27.80;99.90
23885;DHT22;12123;53.088;7.392;2022-08-19T12:30:42;26.90;99.90
23885;DHT22;12123;53.088;7.392;2022-08-19T12:33:09;27.10;1.00
23885;DHT22;12123;53.088;7.392;2022-08-19T12:35:43;26.50;1.00
23885;DHT22;12123;53.088;7.392;2022-08-19T12:38:13;26.60;1.00
23885;DHT22;12123;53.088;7.392;2022-08-19T12:40:41;26.50;1.00
23885;DHT22;12123;53.088;7.392;2022-08-19T12:43:08;26.10;1.00
23885;DHT22;12123;53.088;7.392;2022-08-19T12:45:35;26.40;1.00
23885;DHT22;12123;53.088;7.392;2022-08-19T12:48:03;26.50;1.10
23885;DHT22;12123;53.088;7.392;2022-08-19T12:50:51;27.30;1.00
23885;DHT22;12123;53.088;7.392;2022-08-19T12:53:18;29.60;1.00
23885;DHT22;12123;53.088;7.392;2022-08-19T12:55:45;30.50;99.90
23885;DHT22;12123;53.088;7.392;2022-08-19T12:58:12;32.40;99.90
23885;DHT22;12123;53.088;7.392;2022-08-19T13:00:39;33.40;99.90
23885;DHT22;12123;53.088;7.392;2022-08-19T13:03:06;34.80;99.90
23885;DHT22;12123;53.088;7.392;2022-08-19T13:05:33;32.60;99.90
23885;DHT22;12123;53.088;7.392;2022-08-19T13:08:00;32.80;99.90
23885;DHT22;12123;53.088;7.392;2022-08-19T13:10:33;33.50;99.90
23885;DHT22;12123;53.088;7.392;2022-08-19T13:13:06;30.20;99.90
23885;DHT22;12123;53.088;7.392;2022-08-19T13:15:35;29.10;99.90
23885;DHT22;12123;53.088;7.392;2022-08-19T13:18:02;29.90;99.90
23885;DHT22;12123;53.088;7.392;2022-08-19T13:20:29;30.80;99.90
23885;DHT22;12123;53.088;7.392;2022-08-19T13:22:56;29.40;99.90
23885;DHT22;12123;53.088;7.392;2022-08-19T13:25:24;28.20;99.90
23885;DHT22;12123;53.088;7.392;2022-08-19T13:27:52;27.10;99.90
23885;DHT22;12123;53.088;7.392;2022-08-19T13:30:20;26.40;1.00
23885;DHT22;12123;53.088;7.392;2022-08-19T13:33:06;26.30;1.00
23885;DHT22;12123;53.088;7.392;2022-08-19T13:35:44;26.20;1.00
23885;DHT22;12123;53.088;7.392;2022-08-19T13:38:12;26.40;1.00
23885;DHT22;12123;53.088;7.392;2022-08-19T13:40:40;26.00;1.00
23885;DHT22;12123;53.088;7.392;2022-08-19T13:43:09;26.20;1.00
23885;DHT22;12123;53.088;7.392;2022-08-19T13:45:53;26.70;8.80
23885;DHT22;12123;53.088;7.392;2022-08-19T13:48:24;25.80;1.00
23885;DHT22;12123;53.088;7.392;2022-08-19T13:50:53;26.10;9.00
23885;DHT22;12123;53.088;7.392;2022-08-19T13:53:20;25.90;3.10
23885;DHT22;12123;53.088;7.392;2022-08-19T13:55:47;25.50;9.90
23885;DHT22;12123;53.088;7.392;2022-08-19T13:58:15;25.80;19.80
23885;DHT22;12123;53.088;7.392;2022-08-19T14:00:45;26.20;24.70
23885;DHT22;12123;53.088;7.392;2022-08-19T14:03:12;26.40;9.70
23885;DHT22;12123;53.088;7.392;2022-08-19T14:05:39;28.00;1.00
23885;DHT22;12123;53.088;7.392;2022-08-19T14:08:06;30.40;1.00
23885;DHT22;12123;53.088;7.392;2022-08-19T14:10:33;28.20;99.90
23885;DHT22;12123;53.088;7.392;2022-08-19T14:13:02;29.10;99.90
23885;DHT22;12123;53.088;7.392;2022-08-19T14:15:31;27.20;99.90
23885;DHT22;12123;53.088;7.392;2022-08-19T14:17:58;26.50;1.00
23885;DHT22;12123;53.088;7.392;2022-08-19T14:20:26;27.10;1.00
23885;DHT22;12123;53.088;7.392;2022-08-19T14:22:54;27.60;1.00
23885;DHT22;12123;53.088;7.392;2022-08-19T14:25:24;28.00;1.00
23885;DHT22;12123;53.088;7.392;2022-08-19T14:27:51;27.60;1.00
23885;DHT22;12123;53.088;7.392;2022-08-19T14:30:25;27.10;1.00
23885;DHT22;12123;53.088;7.392;2022-08-19T14:32:57;26.70;1.00
23885;DHT22;12123;53.088;7.392;2022-08-19T14:35:26;26.30;1.00
23885;DHT22;12123;53.088;7.392;2022-08-19T14:37:54;26.40;1.00
23885;DHT22;12123;53.088;7.392;2022-08-19T14:40:24;26.50;1.00
23885;DHT22;12123;53.088;7.392;2022-08-19T14:42:57;27.50;1.00
23885;DHT22;12123;53.088;7.392;2022-08-19T14:45:27;27.80;1.00
23885;DHT22;12123;53.088;7.392;2022-08-19T14:47:54;27.50;1.00
23885;DHT22;12123;53.088;7.392;2022-08-19T14:50:22;27.00;1.00
23885;DHT22;12123;53.088;7.392;2022-08-19T14:52:49;27.40;1.00
23885;DHT22;12123;53.088;7.392;2022-08-19T14:55:17;28.20;1.00
23885;DHT22;12123;53.088;7.392;2022-08-19T14:57:44;27.50;1.00
23885;DHT22;12123;53.088;7.392;2022-08-19T15:00:12;26.60;1.00
23885;DHT22;12123;53.088;7.392;2022-08-19T15:02:41;27.70;1.00
23885;DHT22;12123;53.088;7.392;2022-08-19T15:05:08;27.40;1.00
23885;DHT22;12123;53.088;7.392;2022-08-19T15:07:36;26.60;1.00
23885;DHT22;12123;53.088;7.392;2022-08-19T15:10:04;26.40;1.00
23885;DHT22;12123;53.088;7.392;2022-08-19T15:12:37;27.10;1.00
23885;DHT22;12123;53.088;7.392;2022-08-19T15:15:14;27.00;1.00
23885;DHT22;12123;53.088;7.392;2022-08-19T15:17:44;27.20;1.00
23885;DHT22;12123;53.088;7.392;2022-08-19T15:20:15;27.80;1.00
23885;DHT22;12123;53.088;7.392;2022-08-19T15:22:43;28.20;1.00
23885;DHT22;12123;53.088;7.392;2022-08-19T15:25:11;27.10;1.00
23885;DHT22;12123;53.088;7.392;2022-08-19T15:27:40;26.60;1.00
23885;DHT22;12123;53.088;7.392;2022-08-19T15:30:09;26.30;1.00
23885;DHT22;12123;53.088;7.392;2022-08-19T15:32:37;26.50;1.00
23885;DHT22;12123;53.088;7.392;2022-08-19T15:35:06;26.90;1.00
23885;DHT22;12123;53.088;7.392;2022-08-19T15:37:33;26.40;76.00
23885;DHT22;12123;53.088;7.392;2022-08-19T16:19:06;24.60;99.50
23885;DHT22;12123;53.088;7.392;2022-08-19T16:21:38;24.50;99.90
23885;DHT22;12123;53.088;7.392;2022-08-19T16:24:09;24.30;99.90
23885;DHT22;12123;53.088;7.392;2022-08-19T16:26:38;24.40;99.90
23885;DHT22;12123;53.088;7.392;2022-08-19T16:29:06;24.50;99.90
23885;DHT22;12123;53.088;7.392;2022-08-19T16:31:40;24.30;99.90
23885;DHT22;12123;53.088;7.392;2022-08-19T16:34:07;24.60;99.90
23885;DHT22;12123;53.088;7.392;2022-08-19T16:36:35;24.50;99.90
23885;DHT22;12123;53.088;7.392;2022-08-19T16:39:02;24.40;99.90
23885;DHT22;12123;53.088;7.392;2022-08-19T16:41:29;24.20;1.00
23885;DHT22;12123;53.088;7.392;2022-08-19T16:43:56;24.10;5.00